Time;durP1;ratioP1;P1;durP2;ratioP2;P2;SDS_P1;SDS_P2;PMS_P1;PMS_P2;Temp;Humidity;BMP_temperature;BMP_pressure;BME280_temperature;BME280_humidity;BME280_pressure;Samples;Min_cycle;Max_cycle;Signal;HPM_P1;HPM_P2
2022/12/22 03:26:10;;;;;;;22.90;12.20;;;;;;;1.00;100.00;98300.55;213771;1313;22735;-73
2022/12/22 03:31:12;;;;;;;25.20;11.70;;;;;;;0.95;100.00;98301.52;213756;1299;24370;-73
2022/12/22 03:36:14;;;;;;;25.00;12.00;;;;;;;0.91;100.00;98308.89;213498;1314;25272;-73
2022/12/22 03:46:36;;;;;;;30.30;13.80;;;;;;;0.86;100.00;98306.69;213847;1312;24268;-76
2022/12/22 03:51:44;;;;;;;30.30;14.70;;;;;;;0.87;100.00;98309.71;213692;1313;24309;-73
2022/12/22 03:56:47;;;;;;;25.70;13.10;;;;;;;0.89;100.00;98312.33;213750;1313;23162;-74
2022/12/22 04:01:52;;;;;;;25.50;12.50;;;;;;;0.92;100.00;98311.96;213362;1313;25372;-74
2022/12/22 04:06:54;;;;;;;37.90;15.20;;;;;;;0.97;100.00;98309.89;213666;1313;23172;-74
2022/12/22 04:17:16;;;;;;;32.20;15.20;;;;;;;1.10;100.00;98301.57;213870;1311;23902;-73
2022/12/22 04:22:18;;;;;;;31.50;15.80;;;;;;;1.14;100.00;98299.32;213604;1313;23755;-74
2022/12/22 04:27:20;;;;;;;26.10;13.40;;;;;;;1.17;100.00;98290.92;213344;1313;22484;-73
2022/12/22 04:32:22;;;;;;;30.40;13.20;;;;;;;1.16;100.00;98284.25;213522;1308;22564;-74
2022/12/22 04:37:23;;;;;;;34.20;15.50;;;;;;;1.15;100.00;98286.61;213643;1314;23329;-74
2022/12/22 04:42:25;;;;;;;31.30;13.60;;;;;;;1.14;100.00;98277.52;213626;1313;22538;-73
2022/12/22 04:47:27;;;;;;;32.80;15.70;;;;;;;1.13;100.00;98275.33;213640;1313;23168;-73
2022/12/22 04:52:29;;;;;;;35.50;15.90;;;;;;;1.14;100.00;98267.44;213446;1313;25405;-74
2022/12/22 04:57:31;;;;;;;34.10;14.60;;;;;;;1.15;100.00;98263.08;213498;1313;24468;-74
2022/12/22 05:02:41;;;;;;;33.90;15.30;;;;;;;1.16;100.00;98247.85;213558;1313;22612;-73
2022/12/22 05:07:43;;;;;;;40.50;17.40;;;;;;;1.16;100.00;98243.89;213420;1311;22544;-74
2022/12/22 05:12:53;;;;;;;32.70;14.70;;;;;;;1.15;100.00;98237.65;213538;1310;24322;-74
2022/12/22 05:17:57;;;;;;;30.70;13.30;;;;;;;1.15;100.00;98234.54;213607;1313;24523;-74
2022/12/22 05:22:58;;;;;;;32.40;14.50;;;;;;;1.14;100.00;98236.68;213796;1313;24847;-74
2022/12/22 05:28:00;;;;;;;37.00;15.50;;;;;;;1.13;100.00;98235.14;213461;1307;22551;-74
2022/12/22 05:33:02;;;;;;;33.40;14.50;;;;;;;1.11;100.00;98239.42;213646;1313;22474;-73
2022/12/22 05:38:04;;;;;;;29.90;13.80;;;;;;;1.09;100.00;98239.71;213705;1313;25314;-74
2022/12/22 05:43:05;;;;;;;32.40;15.00;;;;;;;1.10;100.00;98241.52;213455;1313;24077;-72
2022/12/22 05:48:07;;;;;;;39.20;16.10;;;;;;;1.14;100.00;98229.23;213518;1313;25232;-74
2022/12/22 05:53:09;;;;;;;33.30;14.00;;;;;;;1.20;100.00;98222.63;213600;1313;22485;-73
2022/12/22 05:58:11;;;;;;;32.90;14.60;;;;;;;1.28;100.00;98227.81;213783;1313;22580;-75
2022/12/22 06:03:12;;;;;;;28.00;12.90;;;;;;;1.33;100.00;98233.23;213618;1312;22584;-73
2022/12/22 06:08:15;;;;;;;34.00;14.80;;;;;;;1.39;100.00;98228.98;213508;1313;24311;-74
2022/12/22 06:13:16;;;;;;;33.30;14.20;;;;;;;1.48;100.00;98225.25;213621;1313;26453;-74
2022/12/22 06:18:18;;;;;;;31.60;14.80;;;;;;;1.53;100.00;98214.14;213472;1313;22581;-74
2022/12/22 06:23:21;;;;;;;30.60;13.70;;;;;;;1.57;100.00;98210.19;213330;1313;22635;-74
2022/12/22 06:28:23;;;;;;;28.50;14.10;;;;;;;1.59;100.00;98209.98;213386;1313;22604;-74
2022/12/22 06:33:25;;;;;;;30.50;14.50;;;;;;;1.60;100.00;98209.95;213616;1313;24379;-75
2022/12/22 06:38:27;;;;;;;38.70;16.30;;;;;;;1.60;100.00;98212.23;213343;1313;24370;-73
2022/12/22 06:43:29;;;;;;;30.80;15.10;;;;;;;1.61;100.00;98208.33;213777;1313;24371;-74
2022/12/22 06:48:31;;;;;;;34.00;15.00;;;;;;;1.62;100.00;98199.52;213818;1290;25279;-74
2022/12/22 06:53:32;;;;;;;31.60;15.00;;;;;;;1.63;100.00;98203.86;213706;1304;23198;-74
2022/12/22 06:58:34;;;;;;;31.50;14.00;;;;;;;1.65;100.00;98196.83;214240;1286;23940;-74
2022/12/22 07:03:36;;;;;;;33.50;15.50;;;;;;;1.68;100.00;98193.81;214049;1288;138815;-74
2022/12/22 07:08:38;;;;;;;24.20;11.60;;;;;;;1.73;100.00;98184.82;213992;1284;138794;-73
2022/12/22 07:13:40;;;;;;;31.30;12.60;;;;;;;1.76;100.00;98198.24;213941;1287;138718;-73
2022/12/22 07:18:42;;;;;;;22.40;10.90;;;;;;;1.80;100.00;98194.06;214213;1288;138675;-72
2022/12/22 07:23:44;;;;;;;20.50;10.40;;;;;;;1.83;100.00;98188.77;213954;1289;22514;-73
2022/12/22 07:28:45;;;;;;;21.80;11.00;;;;;;;1.90;100.00;98182.14;213959;1284;138608;-73
2022/12/22 07:33:47;;;;;;;24.20;12.30;;;;;;;1.95;100.00;98174.42;213950;1289;138691;-73
2022/12/22 07:38:50;;;;;;;25.00;12.80;;;;;;;2.00;100.00;98187.33;213988;1312;138812;-72
2022/12/22 07:43:54;;;;;;;27.40;13.30;;;;;;;2.03;100.00;98194.92;214067;1288;138698;-73
2022/12/22 07:54:17;;;;;;;25.60;13.40;;;;;;;2.10;100.00;98186.44;213973;1291;26196;-73
2022/12/22 07:59:19;;;;;;;23.00;11.60;;;;;;;2.21;100.00;98177.35;213623;1291;138663;-72
2022/12/22 08:04:21;;;;;;;28.00;13.30;;;;;;;2.35;100.00;98178.71;213697;1290;138730;-73
2022/12/22 08:09:23;;;;;;;27.20;11.60;;;;;;;2.45;100.00;98173.89;213928;1289;138703;-73
2022/12/22 08:14:25;;;;;;;22.30;10.60;;;;;;;2.57;100.00;98171.41;213955;1283;139182;-71
2022/12/22 08:19:27;;;;;;;23.80;11.00;;;;;;;2.74;100.00;98176.28;213897;1289;138860;-72
2022/12/22 08:24:29;;;;;;;24.30;10.30;;;;;;;2.88;100.00;98173.27;213667;1289;23220;-71
2022/12/22 08:29:37;;;;;;;18.70;9.40;;;;;;;3.08;100.00;98163.09;213647;1312;138324;-72
2022/12/22 08:34:39;;;;;;;20.70;10.90;;;;;;;3.31;100.00;98156.30;214006;1287;138546;-73
2022/12/22 08:39:45;;;;;;;17.80;9.00;;;;;;;3.52;100.00;98166.12;214104;1288;139229;-73
2022/12/22 08:44:51;;;;;;;19.00;9.60;;;;;;;3.67;100.00;98162.44;214134;1287;139208;-72
2022/12/22 08:49:54;;;;;;;16.90;8.50;;;;;;;3.76;100.00;98161.73;214178;1285;139247;-72
2022/12/22 08:54:56;;;;;;;15.10;7.90;;;;;;;3.86;100.00;98150.27;214188;1280;138980;-73
2022/12/22 08:59:58;;;;;;;18.70;8.40;;;;;;;3.97;100.00;98145.55;213860;1303;22610;-73
2022/12/22 09:04:59;;;;;;;15.00;7.10;;;;;;;4.04;100.00;98129.96;214068;1288;138183;-72
2022/12/22 09:10:01;;;;;;;18.60;8.70;;;;;;;4.09;100.00;98118.38;214017;1312;139373;-73
2022/12/22 09:15:04;;;;;;;21.80;10.20;;;;;;;4.24;100.00;98110.03;213930;1307;139364;-72
2022/12/22 09:20:07;;;;;;;19.60;10.20;;;;;;;4.33;100.00;98103.20;213755;1280;139479;-73
2022/12/22 09:25:09;;;;;;;21.10;10.00;;;;;;;4.22;100.00;98098.32;213761;1312;139626;-72
2022/12/22 09:30:12;;;;;;;24.10;11.10;;;;;;;4.22;100.00;98102.28;214305;1312;24275;-72
2022/12/22 09:35:13;;;;;;;29.80;13.70;;;;;;;4.28;100.00;98095.94;214080;1292;138864;-73
2022/12/22 09:40:15;;;;;;;21.00;10.10;;;;;;;4.20;100.00;98080.66;214131;1284;139268;-72
2022/12/22 09:45:20;;;;;;;22.30;9.50;;;;;;;4.12;100.00;98074.77;214239;1288;139185;-73
2022/12/22 09:50:24;;;;;;;19.90;9.30;;;;;;;4.06;100.00;98074.96;214297;1281;139496;-73
2022/12/22 09:55:42;;;;;;;18.80;9.90;;;;;;;4.07;100.00;98077.23;214264;1280;139060;-74
2022/12/22 10:00:49;;;;;;;17.20;8.10;;;;;;;4.11;100.00;98079.73;214114;1281;139043;-74
2022/12/22 10:06:16;;;;;;;16.10;8.40;;;;;;;4.14;100.00;98070.78;214279;1285;24298;-72
2022/12/22 10:11:18;;;;;;;17.30;9.30;;;;;;;4.20;100.00;98056.74;214293;1288;138691;-73
2022/12/22 10:16:26;;;;;;;16.40;9.50;;;;;;;4.32;100.00;98052.88;214059;1296;139176;-74
2022/12/22 10:21:28;;;;;;;15.40;8.70;;;;;;;4.52;100.00;98045.30;215146;1298;138763;-74
2022/12/22 10:26:33;;;;;;;16.50;9.50;;;;;;;4.68;100.00;98041.66;214180;1283;139240;-74
2022/12/22 10:31:55;;;;;;;17.00;9.60;;;;;;;4.85;100.00;98032.24;214288;1298;139215;-74
2022/12/22 10:37:00;;;;;;;15.90;8.40;;;;;;;5.02;100.00;98030.88;214107;1288;139019;-76
2022/12/22 10:42:13;;;;;;;17.30;9.30;;;;;;;5.10;100.00;98036.16;214002;1288;106569;-75
2022/12/22 10:47:22;;;;;;;17.10;8.50;;;;;;;5.14;100.00;98038.33;214496;1287;139108;-75
2022/12/22 10:52:29;;;;;;;16.20;7.90;;;;;;;5.19;100.00;98029.40;214223;1288;139033;-74
2022/12/22 10:57:33;;;;;;;12.30;6.70;;;;;;;5.27;100.00;98027.61;214222;1288;139260;-75
2022/12/22 11:02:36;;;;;;;11.40;7.00;;;;;;;5.36;100.00;98020.52;214143;1288;139080;-75
2022/12/22 11:07:41;;;;;;;13.40;6.80;;;;;;;5.54;100.00;98018.20;214048;1288;139233;-73
2022/12/22 11:12:58;;;;;;;13.10;7.20;;;;;;;5.79;100.00;98014.13;213946;1287;139018;-74
2022/12/22 11:18:13;;;;;;;12.10;6.60;;;;;;;6.03;100.00;98011.28;214003;1283;23240;-74
2022/12/22 11:23:39;;;;;;;14.90;8.00;;;;;;;6.16;99.38;98001.88;214224;1280;138222;-74
2022/12/22 11:28:48;;;;;;;15.80;8.30;;;;;;;6.17;98.86;98003.41;214259;1280;138923;-74
2022/12/22 11:34:08;;;;;;;16.00;8.90;;;;;;;5.99;97.18;97989.88;214265;1283;139016;-74
2022/12/22 11:39:14;;;;;;;;;;;;;;;5.75;97.80;97991.99;214135;1283;139007;-74
2022/12/22 11:44:43;;;;;;;20.50;10.20;;;;;;;5.66;97.69;97987.67;214171;1288;125413;-76
2022/12/22 11:50:08;;;;;;;20.20;11.00;;;;;;;5.53;97.38;97981.80;213899;1312;139386;-75
2022/12/22 11:55:42;;;;;;;18.30;9.60;;;;;;;5.47;98.00;97970.52;214299;1291;139279;-75
2022/12/22 12:01:11;;;;;;;22.50;11.60;;;;;;;5.56;98.03;97958.23;214090;1285;139075;-76
2022/12/22 12:06:33;;;;;;;22.80;11.90;;;;;;;5.43;97.37;97945.73;214282;1284;25295;-75
2022/12/22 12:11:52;;;;;;;17.50;8.90;;;;;;;5.26;97.09;97949.54;214245;1281;138681;-77
2022/12/22 12:17:02;;;;;;;22.90;10.90;;;;;;;5.06;97.23;97946.39;214099;1291;138711;-75
2022/12/22 12:22:07;;;;;;;22.10;11.60;;;;;;;4.92;97.59;97948.20;214041;1286;139149;-76
2022/12/22 12:27:40;;;;;;;24.50;11.80;;;;;;;4.78;97.24;97945.48;213930;1284;139244;-75
2022/12/22 12:32:54;;;;;;;23.10;12.50;;;;;;;4.60;97.09;97945.00;214005;1288;138739;-76
2022/12/22 12:38:05;;;;;;;25.50;13.40;;;;;;;4.40;97.41;97938.90;214133;1281;138817;-75
2022/12/22 12:43:11;;;;;;;25.90;13.70;;;;;;;4.30;98.10;97935.46;214039;1285;138577;-76
2022/12/22 12:48:23;;;;;;;27.10;14.00;;;;;;;4.35;98.28;97923.95;214259;1312;22907;-75
2022/12/22 12:53:27;;;;;;;26.20;12.50;;;;;;;4.33;98.49;97917.16;214066;1288;139003;-76
2022/12/22 12:58:37;;;;;;;27.00;13.40;;;;;;;4.30;98.30;97917.64;214060;1284;139028;-75
2022/12/22 13:03:41;;;;;;;24.10;13.10;;;;;;;4.28;98.79;97913.79;214117;1291;138637;-75
2022/12/22 13:09:03;;;;;;;28.90;14.50;;;;;;;4.25;98.90;97919.35;214907;1290;139261;-75
2022/12/22 13:14:56;;;;;;;50.00;22.90;;;;;;;4.26;99.39;97917.45;214170;1288;138585;-75
2022/12/22 13:19:58;;;;;;;28.30;15.60;;;;;;;4.28;99.38;97917.55;213955;1291;138700;-75
2022/12/22 13:25:02;;;;;;;35.60;19.20;;;;;;;4.21;99.55;97917.60;214143;1298;138974;-75
2022/12/22 13:30:05;;;;;;;39.70;21.10;;;;;;;4.17;99.74;97897.36;215327;1290;24293;-74
2022/12/22 13:35:32;;;;;;;20.00;10.20;;;;;;;4.22;100.00;97890.72;214235;1283;138986;-75
2022/12/22 13:40:42;;;;;;;22.60;11.00;;;;;;;4.21;100.00;97890.98;214084;1290;139216;-76
2022/12/22 13:45:51;;;;;;;20.80;10.00;;;;;;;4.20;100.00;97880.49;213728;1286;138768;-75
2022/12/22 13:50:57;;;;;;;18.20;9.00;;;;;;;4.13;100.00;97867.47;214111;1293;139306;-74
2022/12/22 13:55:59;;;;;;;20.60;8.70;;;;;;;4.09;100.00;97863.82;214111;1283;139165;-74
2022/12/22 14:01:08;;;;;;;16.70;8.00;;;;;;;4.04;100.00;97860.90;214003;1282;139670;-73
2022/12/22 14:06:38;;;;;;;14.30;7.90;;;;;;;3.98;100.00;97862.46;214360;1288;25272;-73
2022/12/22 14:11:43;;;;;;;15.30;7.70;;;;;;;3.88;100.00;97853.41;214175;1290;138669;-74
2022/12/22 14:16:56;;;;;;;18.70;8.60;;;;;;;3.81;100.00;97845.20;214106;1291;140219;-73
2022/12/22 14:22:03;;;;;;;16.40;9.20;;;;;;;3.79;100.00;97838.73;214047;1288;139356;-74
2022/12/22 14:27:11;;;;;;;17.80;8.60;;;;;;;3.74;100.00;97835.20;214005;1282;138665;-76
2022/12/22 14:32:38;;;;;;;16.20;8.70;;;;;;;3.72;100.00;97840.53;214336;1281;138694;-74
2022/12/22 14:37:40;;;;;;;16.40;7.60;;;;;;;3.70;100.00;97835.36;214375;1281;138629;-74
2022/12/22 14:42:42;;;;;;;16.10;8.20;;;;;;;3.71;100.00;97832.17;214484;1281;22520;-74
2022/12/22 14:47:44;;;;;;;17.50;8.40;;;;;;;3.72;100.00;97829.69;214331;1291;22558;-74
2022/12/22 14:52:50;;;;;;;18.30;8.70;;;;;;;3.74;100.00;97811.92;214126;1281;138406;-74
2022/12/22 14:57:57;;;;;;;22.10;9.80;;;;;;;3.73;100.00;97805.90;214062;1280;138574;-77
2022/12/22 15:03:04;;;;;;;19.50;8.90;;;;;;;3.74;100.00;97815.70;214076;1291;22803;-75
2022/12/22 15:08:36;;;;;;;17.10;9.50;;;;;;;3.76;100.00;97816.75;213952;1312;22645;-76
2022/12/22 15:13:40;;;;;;;20.90;10.00;;;;;;;3.72;100.00;97809.02;213978;1312;22486;-75
2022/12/22 15:18:43;;;;;;;21.30;9.70;;;;;;;3.70;100.00;97810.20;213907;1312;22505;-76
2022/12/22 15:23:46;;;;;;;22.20;10.20;;;;;;;3.71;100.00;97818.98;213582;1312;22497;-75
2022/12/22 15:28:47;;;;;;;19.80;9.40;;;;;;;3.75;100.00;97835.55;214053;1310;22605;-76
2022/12/22 15:33:49;;;;;;;24.50;11.00;;;;;;;3.78;100.00;97835.13;214021;1312;24291;-75
2022/12/22 15:38:51;;;;;;;20.90;8.20;;;;;;;3.82;100.00;97845.62;213787;1312;24313;-75
2022/12/22 15:43:53;;;;;;;19.50;9.00;;;;;;;3.86;100.00;97842.02;213866;1312;22573;-76
2022/12/22 15:49:00;;;;;;;18.40;8.70;;;;;;;3.89;100.00;97839.63;213737;1312;25460;-76
2022/12/22 15:54:03;;;;;;;18.80;9.40;;;;;;;3.94;100.00;97836.76;213722;1312;25278;-76
2022/12/22 15:59:05;;;;;;;18.20;8.40;;;;;;;3.99;100.00;97842.79;213691;1312;22516;-76
2022/12/22 16:04:06;;;;;;;19.70;9.10;;;;;;;4.01;100.00;97844.33;213690;1312;22700;-76
2022/12/22 16:09:26;;;;;;;23.10;10.50;;;;;;;4.05;100.00;97840.55;213780;1312;24336;-75
2022/12/22 16:14:28;;;;;;;21.30;9.10;;;;;;;4.06;100.00;97833.39;213808;1312;22538;-75
2022/12/22 16:19:39;;;;;;;21.80;10.50;;;;;;;4.07;100.00;97834.40;213752;1312;25473;-76
2022/12/22 16:24:44;;;;;;;20.40;9.20;;;;;;;4.10;100.00;97830.84;213689;1307;24785;-75
2022/12/22 16:29:51;;;;;;;20.60;10.10;;;;;;;4.10;100.00;97828.52;213903;1307;22484;-75
2022/12/22 16:35:11;;;;;;;21.40;9.70;;;;;;;4.10;100.00;97822.95;213690;1312;25283;-76
2022/12/22 16:40:14;;;;;;;;;;;;;;;4.14;100.00;97821.19;214034;1311;22511;-76
2022/12/22 16:45:27;;;;;;;18.80;9.00;;;;;;;4.15;100.00;97819.38;213782;1306;22528;-76
2022/12/22 16:50:32;;;;;;;19.80;10.00;;;;;;;4.13;100.00;97812.13;213889;1312;22508;-76
2022/12/22 16:55:34;;;;;;;16.30;8.80;;;;;;;4.08;100.00;97817.44;213984;1312;24276;-76
2022/12/22 17:00:39;;;;;;;21.50;9.60;;;;;;;4.06;100.00;97836.99;213624;1312;23942;-76
2022/12/22 17:05:45;;;;;;;21.90;9.50;;;;;;;4.02;100.00;97845.81;213758;1312;22471;-76
2022/12/22 17:10:48;;;;;;;17.60;9.50;;;;;;;4.03;99.97;97845.17;214168;1312;22563;-76
2022/12/22 17:15:50;;;;;;;22.30;9.80;;;;;;;4.02;99.98;97844.85;214264;1312;25287;-75
2022/12/22 17:20:57;;;;;;;23.00;10.80;;;;;;;4.00;100.00;97834.98;213933;1312;22580;-75
2022/12/22 17:26:02;;;;;;;24.20;9.80;;;;;;;3.98;100.00;97831.17;214034;1312;24155;-76
2022/12/22 17:31:05;;;;;;;19.80;10.00;;;;;;;3.92;99.93;97832.95;214140;1312;24286;-75
2022/12/22 17:36:16;;;;;;;19.20;9.50;;;;;;;3.84;100.00;97826.65;213942;1312;25365;-76
2022/12/22 17:41:19;;;;;;;28.40;12.40;;;;;;;3.72;99.91;97823.70;213954;1312;22476;-75
2022/12/22 17:46:21;;;;;;;28.50;13.40;;;;;;;3.61;99.93;97822.07;213739;1312;22495;-76
2022/12/22 17:51:26;;;;;;;24.10;11.60;;;;;;;3.54;100.00;97805.54;213828;1312;22497;-75
2022/12/22 17:56:29;;;;;;;25.30;11.50;;;;;;;3.53;100.00;97804.96;213895;1312;24466;-75
2022/12/22 18:01:32;;;;;;;20.60;9.20;;;;;;;3.56;100.00;97807.23;213896;1312;22553;-76
2022/12/22 18:06:37;;;;;;;24.00;12.10;;;;;;;3.58;100.00;97800.56;214021;1312;22484;-76
2022/12/22 18:11:39;;;;;;;28.40;11.70;;;;;;;3.57;100.00;97788.16;213876;1312;22511;-74
2022/12/22 18:16:46;;;;;;;29.50;12.60;;;;;;;3.55;100.00;97782.65;214144;1312;23663;-75
2022/12/22 18:21:48;;;;;;;26.60;11.80;;;;;;;3.54;100.00;97777.10;213764;1312;24318;-76
2022/12/22 18:26:50;;;;;;;29.90;12.70;;;;;;;3.54;100.00;97774.34;213857;1312;24396;-76
2022/12/22 18:31:52;;;;;;;28.30;13.10;;;;;;;3.55;100.00;97776.20;213760;1312;25028;-74
2022/12/22 18:36:54;;;;;;;25.80;12.10;;;;;;;3.54;100.00;97780.23;214044;1312;24331;-76
2022/12/22 18:41:57;;;;;;;25.10;10.90;;;;;;;3.53;100.00;97774.40;213778;1312;22500;-74
2022/12/22 18:46:59;;;;;;;22.20;10.90;;;;;;;3.55;100.00;97763.48;213847;1312;22472;-75
2022/12/22 18:52:03;;;;;;;23.10;10.60;;;;;;;3.58;100.00;97759.23;213905;1312;24293;-74
2022/12/22 18:57:12;;;;;;;21.00;9.40;;;;;;;3.60;100.00;97760.09;213973;1312;24504;-75
2022/12/22 19:02:22;;;;;;;21.50;9.70;;;;;;;3.69;100.00;97762.67;213646;1312;22475;-76
2022/12/22 19:07:25;;;;;;;20.30;9.40;;;;;;;3.82;100.00;97761.64;214009;1312;22625;-76
2022/12/22 19:12:27;;;;;;;18.20;8.90;;;;;;;3.91;100.00;97758.33;213799;1312;23741;-75
2022/12/22 19:17:29;;;;;;;19.00;9.00;;;;;;;3.95;100.00;97760.12;213586;1312;22499;-76
2022/12/22 19:22:31;;;;;;;22.00;10.10;;;;;;;3.98;100.00;97769.50;213774;1312;25562;-76
2022/12/22 19:27:33;;;;;;;25.60;9.90;;;;;;;4.00;100.00;97776.02;213513;1312;22482;-75
2022/12/22 19:32:40;;;;;;;23.90;10.70;;;;;;;4.06;100.00;97775.30;213742;1312;23785;-76
2022/12/22 19:37:44;;;;;;;24.40;11.20;;;;;;;4.11;100.00;97774.01;213943;1312;22485;-75
2022/12/22 19:42:50;;;;;;;19.90;10.20;;;;;;;4.16;99.85;97774.63;213827;1312;25345;-76
2022/12/22 19:47:52;;;;;;;26.70;11.50;;;;;;;4.22;100.00;97785.64;213799;1312;22490;-76
2022/12/22 19:52:59;;;;;;;25.10;10.40;;;;;;;4.25;99.62;97782.71;213738;1312;22485;-75
2022/12/22 19:58:01;;;;;;;24.40;10.40;;;;;;;4.25;99.43;97787.21;213666;1311;22486;-75
2022/12/22 20:03:04;;;;;;;24.40;10.80;;;;;;;4.24;99.40;97791.77;214038;1312;24927;-74
2022/12/22 20:08:07;;;;;;;23.70;10.50;;;;;;;4.22;99.23;97793.33;213839;1312;25346;-76
2022/12/22 20:13:16;;;;;;;23.00;10.00;;;;;;;4.19;98.80;97796.45;213867;1312;22649;-75
2022/12/22 20:18:21;;;;;;;23.70;10.50;;;;;;;4.17;99.24;97792.18;213567;1312;25398;-75
2022/12/22 20:23:23;;;;;;;25.40;10.50;;;;;;;4.13;99.18;97785.73;213802;1312;22480;-74
2022/12/22 20:28:30;;;;;;;20.90;9.70;;;;;;;4.08;98.93;97777.25;213869;1312;22697;-74
2022/12/22 20:33:33;;;;;;;19.00;9.60;;;;;;;4.01;99.28;97773.56;213724;1303;22483;-75
2022/12/22 20:38:39;;;;;;;25.50;11.30;;;;;;;3.93;99.52;97773.16;213742;1312;24367;-76
2022/12/22 20:43:41;;;;;;;21.80;9.40;;;;;;;3.84;99.45;97781.19;213743;1312;22548;-74
2022/12/22 20:48:49;;;;;;;24.50;11.10;;;;;;;3.81;99.43;97789.03;213758;1312;22582;-75
2022/12/22 20:53:52;;;;;;;26.20;11.00;;;;;;;3.79;99.37;97789.98;213664;1312;22602;-75
2022/12/22 20:58:55;;;;;;;25.90;11.30;;;;;;;3.81;99.74;97788.50;213521;1312;25224;-75
2022/12/22 21:03:56;;;;;;;24.00;12.50;;;;;;;3.80;99.37;97783.10;213691;1293;22661;-75
2022/12/22 21:09:00;;;;;;;23.40;11.90;;;;;;;3.75;99.49;97784.48;213745;1312;24426;-74
2022/12/22 21:14:02;;;;;;;24.60;11.10;;;;;;;3.76;99.84;97780.10;213620;1312;25333;-75
2022/12/22 21:19:04;;;;;;;23.10;10.80;;;;;;;3.79;99.88;97777.38;213789;1312;22584;-75
2022/12/22 21:24:06;;;;;;;24.20;10.60;;;;;;;3.80;99.90;97783.09;213778;1312;22519;-74
2022/12/22 21:29:15;;;;;;;27.10;10.50;;;;;;;3.84;99.99;97788.55;213783;1313;22480;-75
2022/12/22 21:34:17;;;;;;;20.10;9.90;;;;;;;3.87;100.00;97791.94;213729;1313;22628;-75
2022/12/22 21:39:32;;;;;;;25.70;11.80;;;;;;;3.93;100.00;97791.65;213677;1313;25271;-75
2022/12/22 21:44:34;;;;;;;25.00;11.20;;;;;;;3.96;100.00;97792.19;213968;1305;22490;-75
2022/12/22 21:49:36;;;;;;;26.60;12.10;;;;;;;3.98;100.00;97791.02;213410;1313;22506;-75
2022/12/22 21:54:38;;;;;;;26.50;11.50;;;;;;;3.99;100.00;97787.77;213378;1313;25282;-75
2022/12/22 21:59:40;;;;;;;25.10;11.70;;;;;;;3.98;100.00;97790.95;213471;1313;26455;-76
2022/12/22 22:04:42;;;;;;;28.90;12.90;;;;;;;3.98;100.00;97795.36;213500;1313;25376;-75
2022/12/22 22:09:52;;;;;;;26.10;11.20;;;;;;;3.96;100.00;97805.80;213577;1313;25270;-76
2022/12/22 22:14:54;;;;;;;23.60;10.60;;;;;;;3.94;100.00;97805.38;213470;1313;22531;-76
2022/12/22 22:19:56;;;;;;;26.40;11.50;;;;;;;3.95;100.00;97802.89;213604;1313;22469;-77
2022/12/22 22:24:58;;;;;;;26.70;10.70;;;;;;;3.93;100.00;97799.73;213510;1313;22535;-75
2022/12/22 22:30:00;;;;;;;24.50;11.70;;;;;;;3.91;100.00;97803.42;213774;1312;22955;-75
2022/12/22 22:35:03;;;;;;;27.50;11.20;;;;;;;3.89;100.00;97806.55;213763;1312;22488;-75
2022/12/22 22:40:10;;;;;;;21.50;10.40;;;;;;;3.87;100.00;97807.41;213896;1306;22492;-76
2022/12/22 22:45:14;;;;;;;28.80;13.00;;;;;;;3.84;100.00;97810.17;213814;1312;108425;-76
2022/12/22 22:50:17;;;;;;;22.90;12.00;;;;;;;3.81;100.00;97816.32;213859;1312;24177;-75
2022/12/22 22:55:19;;;;;;;25.90;11.00;;;;;;;3.77;100.00;97814.67;213981;1312;22637;-75
2022/12/22 23:00:21;;;;;;;21.80;11.40;;;;;;;3.73;100.00;97804.89;213943;1312;24319;-75
2022/12/22 23:05:23;;;;;;;20.70;10.80;;;;;;;3.69;100.00;97800.44;213739;1312;23563;-76
2022/12/22 23:10:25;;;;;;;21.10;10.90;;;;;;;3.65;100.00;97799.55;213571;1313;22539;-76
2022/12/22 23:15:27;;;;;;;20.60;9.80;;;;;;;3.62;100.00;97806.06;213932;1312;25300;-76
2022/12/22 23:20:28;;;;;;;18.80;10.40;;;;;;;3.63;100.00;97819.57;213574;1312;22503;-76
2022/12/22 23:25:30;;;;;;;22.80;11.20;;;;;;;3.61;100.00;97819.16;213969;1312;24449;-76
2022/12/22 23:30:32;;;;;;;23.60;11.40;;;;;;;3.58;100.00;97821.91;213756;1312;24270;-76
2022/12/22 23:35:36;;;;;;;21.70;10.70;;;;;;;3.56;100.00;97826.89;213596;1312;22584;-76
2022/12/22 23:40:39;;;;;;;20.80;10.70;;;;;;;3.53;100.00;97825.77;213655;1312;22598;-75
2022/12/22 23:45:56;;;;;;;26.00;12.10;;;;;;;3.48;100.00;97822.96;213734;1312;24131;-75
2022/12/22 23:50:58;;;;;;;23.30;11.40;;;;;;;3.43;100.00;97815.92;213853;1312;22494;-76
2022/12/22 23:56:00;;;;;;;25.20;11.90;;;;;;;3.43;100.00;97817.41;213882;1312;22607;-75
